Time;durP1;ratioP1;P1;durP2;ratioP2;P2;SDS_P1;SDS_P2;PMS_P1;PMS_P2;Temp;Humidity;BMP_temperature;BMP_pressure;BME280_temperature;BME280_humidity;BME280_pressure;Samples;Min_cycle;Max_cycle;Signal;HPM_P1;HPM_P2
2021/08/17 00:01:30;;;;;;;;;;;23.90;57.80;;;;;;2619867;54;19950;-72
2021/08/17 00:03:55;;;;;;;;;;;23.80;58.00;;;;;;2618917;46;20454;-74
2021/08/17 00:06:21;;;;;;;;;;;23.90;57.70;;;;;;2619206;47;19938;-73
2021/08/17 00:08:47;;;;;;;;;;;24.00;57.40;;;;;;2620032;54;19945;-73
2021/08/17 00:11:16;;;;;;;;;;;24.00;57.40;;;;;;2619010;54;19970;-73
2021/08/17 00:13:43;;;;;;;;;;;24.00;57.30;;;;;;2619527;47;20415;-73
2021/08/17 00:16:09;;;;;;;;;;;24.00;57.50;;;;;;2619960;54;19938;-74
2021/08/17 00:18:35;;;;;;;;;;;24.00;57.80;;;;;;2619165;47;20016;-73
2021/08/17 00:21:00;;;;;;;;;;;23.90;58.80;;;;;;2619900;54;19938;-74
2021/08/17 00:23:26;;;;;;;;;;;23.90;57.90;;;;;;2619889;54;19938;-73
2021/08/17 00:25:52;;;;;;;;;;;23.90;58.30;;;;;;2619407;46;19946;-73
2021/08/17 00:28:20;;;;;;;;;;;23.90;58.10;;;;;;2619394;46;19938;-73
2021/08/17 00:30:46;;;;;;;;;;;23.90;58.50;;;;;;2619196;47;19987;-74
2021/08/17 00:33:12;;;;;;;;;;;23.90;57.90;;;;;;2620916;39;20351;-74
2021/08/17 00:35:37;;;;;;;;;;;23.90;58.40;;;;;;2620422;39;20323;-72
2021/08/17 00:38:03;;;;;;;;;;;23.90;58.30;;;;;;2619783;54;19942;-72
2021/08/17 00:40:29;;;;;;;;;;;23.90;57.70;;;;;;2619081;47;19939;-73
2021/08/17 00:42:55;;;;;;;;;;;23.90;57.80;;;;;;2619242;46;19943;-74
2021/08/17 00:45:24;;;;;;;;;;;24.00;57.80;;;;;;2620066;54;19939;-75
2021/08/17 00:47:51;;;;;;;;;;;23.90;58.60;;;;;;2619752;39;20403;-74
2021/08/17 00:50:17;;;;;;;;;;;23.80;58.70;;;;;;2619860;54;19938;-73
2021/08/17 00:52:43;;;;;;;;;;;23.80;58.40;;;;;;2619826;54;19945;-73
2021/08/17 00:55:10;;;;;;;;;;;23.80;58.60;;;;;;2618978;47;19938;-73
2021/08/17 00:57:36;;;;;;;;;;;23.70;58.40;;;;;;2618949;47;19946;-72
2021/08/17 01:00:03;;;;;;;;;;;23.70;58.10;;;;;;2619851;54;19938;-74
2021/08/17 01:05:00;;;;;;;;;;;23.70;58.80;;;;;;2618899;54;20014;-68
2021/08/17 01:07:26;;;;;;;;;;;23.70;59.20;;;;;;2618871;54;19946;-68
2021/08/17 01:09:51;;;;;;;;;;;23.60;58.90;;;;;;2618813;54;20419;-68
2021/08/17 01:12:17;;;;;;;;;;;23.60;58.90;;;;;;2618769;54;19942;-69
2021/08/17 01:14:43;;;;;;;;;;;23.60;58.70;;;;;;2618765;54;19986;-68
2021/08/17 01:17:09;;;;;;;;;;;23.60;59.00;;;;;;2618813;54;19935;-68
2021/08/17 01:19:34;;;;;;;;;;;23.60;59.30;;;;;;2618681;54;19943;-69
2021/08/17 01:22:03;;;;;;;;;;;23.50;58.90;;;;;;2618314;46;19938;-68
2021/08/17 01:24:29;;;;;;;;;;;23.50;59.10;;;;;;2618698;54;19982;-67
2021/08/17 01:26:57;;;;;;;;;;;23.50;58.70;;;;;;2618524;39;20359;-68
2021/08/17 01:29:24;;;;;;;;;;;23.50;58.90;;;;;;2619217;39;20334;-68
2021/08/17 01:31:50;;;;;;;;;;;23.50;58.70;;;;;;2618705;54;20406;-68
2021/08/17 01:34:15;;;;;;;;;;;23.50;59.70;;;;;;2618612;54;20030;-69
2021/08/17 01:36:41;;;;;;;;;;;23.40;59.40;;;;;;2618692;54;20751;-68
2021/08/17 01:39:07;;;;;;;;;;;23.40;58.80;;;;;;2618722;54;19935;-68
2021/08/17 01:41:33;;;;;;;;;;;23.40;58.90;;;;;;2618686;54;19939;-67
2021/08/17 01:44:02;;;;;;;;;;;23.40;59.00;;;;;;2618592;54;20007;-68
2021/08/17 01:46:28;;;;;;;;;;;23.40;59.10;;;;;;2618592;54;19942;-67
2021/08/17 01:48:54;;;;;;;;;;;23.40;59.00;;;;;;2618677;54;20418;-69
2021/08/17 01:51:19;;;;;;;;;;;23.40;59.30;;;;;;2619149;39;20350;-69
2021/08/17 01:53:45;;;;;;;;;;;23.30;58.90;;;;;;2618636;54;19938;-68
2021/08/17 01:56:12;;;;;;;;;;;23.40;59.00;;;;;;2618575;54;19945;-69
2021/08/17 01:58:38;;;;;;;;;;;23.40;58.70;;;;;;2618048;47;19939;-70
2021/08/17 02:01:07;;;;;;;;;;;23.40;58.70;;;;;;2618114;47;19942;-67
2021/08/17 02:03:32;;;;;;;;;;;23.30;58.40;;;;;;2617996;47;19939;-69
2021/08/17 02:05:58;;;;;;;;;;;23.30;59.10;;;;;;2618689;54;19962;-69
2021/08/17 02:08:24;;;;;;;;;;;23.30;58.90;;;;;;2619275;54;19941;-68
2021/08/17 02:10:50;;;;;;;;;;;23.40;59.00;;;;;;2618936;46;20442;-69
2021/08/17 02:13:19;;;;;;;;;;;23.30;58.80;;;;;;2619479;54;19962;-68
2021/08/17 02:15:45;;;;;;;;;;;23.40;59.10;;;;;;2619520;54;19942;-69
2021/08/17 02:18:13;;;;;;;;;;;23.30;59.00;;;;;;2619033;46;19935;-68
2021/08/17 02:20:39;;;;;;;;;;;23.30;58.20;;;;;;2619404;54;19935;-69
2021/08/17 02:23:05;;;;;;;;;;;23.30;58.70;;;;;;2618958;46;20435;-68
2021/08/17 02:25:31;;;;;;;;;;;23.20;58.80;;;;;;2619604;54;19992;-67
2021/08/17 02:27:57;;;;;;;;;;;23.20;59.20;;;;;;2619426;54;19934;-68
2021/08/17 02:30:22;;;;;;;;;;;23.30;59.50;;;;;;2619290;54;20426;-68
2021/08/17 02:32:48;;;;;;;;;;;23.30;60.00;;;;;;2619363;54;20410;-68
2021/08/17 02:35:16;;;;;;;;;;;23.30;64.70;;;;;;2619264;54;19941;-68
2021/08/17 02:37:42;;;;;;;;;;;23.10;65.00;;;;;;2618805;46;20430;-68
2021/08/17 02:40:08;;;;;;;;;;;23.00;64.30;;;;;;2619258;54;19946;-68
2021/08/17 02:42:34;;;;;;;;;;;22.90;62.30;;;;;;2619077;54;19946;-72
2021/08/17 02:45:00;;;;;;;;;;;22.90;62.10;;;;;;2618752;46;19946;-69
2021/08/17 02:47:26;;;;;;;;;;;22.80;62.70;;;;;;2618759;46;19959;-67
2021/08/17 02:49:52;;;;;;;;;;;22.80;67.50;;;;;;2619285;54;20030;-68
2021/08/17 02:52:20;;;;;;;;;;;22.70;70.40;;;;;;2619611;54;19934;-71
2021/08/17 02:54:46;;;;;;;;;;;22.60;68.10;;;;;;2618857;46;19961;-71
2021/08/17 02:57:11;;;;;;;;;;;22.60;62.50;;;;;;2619739;54;20029;-71
2021/08/17 02:59:37;;;;;;;;;;;22.50;62.40;;;;;;2619524;54;19935;-70
2021/08/17 03:02:03;;;;;;;;;;;22.60;65.70;;;;;;2619393;54;19939;-70
2021/08/17 03:04:29;;;;;;;;;;;22.60;74.20;;;;;;2619562;54;19942;-70
2021/08/17 03:06:55;;;;;;;;;;;22.40;69.60;;;;;;2619439;39;20334;-72
2021/08/17 03:09:24;;;;;;;;;;;22.50;63.00;;;;;;2618837;54;19939;-72
2021/08/17 03:11:49;;;;;;;;;;;22.50;64.40;;;;;;2619344;54;19934;-70
2021/08/17 03:14:15;;;;;;;;;;;22.50;68.10;;;;;;2619723;54;19989;-70
2021/08/17 03:16:41;;;;;;;;;;;22.50;71.40;;;;;;2618921;47;19939;-71
2021/08/17 03:19:07;;;;;;;;;;;22.10;75.60;;;;;;2619440;54;19938;-71
2021/08/17 03:21:33;;;;;;;;;;;21.90;76.30;;;;;;2619437;54;19935;-71
2021/08/17 03:23:59;;;;;;;;;;;21.90;70.00;;;;;;2619463;54;19942;-70
2021/08/17 03:26:27;;;;;;;;;;;21.90;69.30;;;;;;2619783;54;20406;-71
2021/08/17 03:28:53;;;;;;;;;;;22.10;73.40;;;;;;2619037;47;19961;-71
2021/08/17 03:31:19;;;;;;;;;;;22.00;77.50;;;;;;2619504;54;20022;-70
2021/08/17 03:33:45;;;;;;;;;;;22.00;72.30;;;;;;2619491;54;20419;-70
2021/08/17 03:36:10;;;;;;;;;;;22.00;64.40;;;;;;2619766;54;19939;-72
2021/08/17 03:38:36;;;;;;;;;;;22.20;63.10;;;;;;2619605;54;19938;-70
2021/08/17 03:41:03;;;;;;;;;;;22.30;62.10;;;;;;2619474;54;19973;-70
2021/08/17 03:43:31;;;;;;;;;;;22.40;62.90;;;;;;2619150;46;19943;-70
2021/08/17 03:45:57;;;;;;;;;;;22.40;71.80;;;;;;2619607;54;19934;-70
2021/08/17 03:48:23;;;;;;;;;;;22.10;79.00;;;;;;2619612;54;19934;-70
2021/08/17 03:50:48;;;;;;;;;;;21.90;78.60;;;;;;2619024;46;19941;-72
2021/08/17 03:53:14;;;;;;;;;;;21.70;81.60;;;;;;2619457;54;19941;-71
2021/08/17 03:55:40;;;;;;;;;;;21.50;83.00;;;;;;2619246;54;19935;-70
2021/08/17 03:58:06;;;;;;;;;;;21.40;83.00;;;;;;2619376;54;19934;-72
2021/08/17 04:00:36;;;;;;;;;;;21.30;81.10;;;;;;2618805;46;20384;-71
2021/08/17 04:03:02;;;;;;;;;;;21.30;68.50;;;;;;2618515;47;19939;-70
2021/08/17 04:05:28;;;;;;;;;;;21.50;64.70;;;;;;2619167;54;19958;-70
2021/08/17 04:07:54;;;;;;;;;;;21.80;63.70;;;;;;2618840;46;19939;-70
2021/08/17 04:10:20;;;;;;;;;;;22.10;62.20;;;;;;2618916;47;19941;-70
2021/08/17 04:12:46;;;;;;;;;;;22.40;61.30;;;;;;2619559;54;19934;-71
2021/08/17 04:15:12;;;;;;;;;;;22.50;61.70;;;;;;2619322;54;19938;-76
2021/08/17 04:17:40;;;;;;;;;;;22.60;62.10;;;;;;2619597;54;20026;-71
2021/08/17 04:20:08;;;;;;;;;;;22.60;60.90;;;;;;2619321;54;19961;-71
2021/08/17 04:22:34;;;;;;;;;;;22.70;59.90;;;;;;2619486;39;20386;-71
2021/08/17 04:25:00;;;;;;;;;;;22.70;68.10;;;;;;2619445;54;19941;-71
2021/08/17 04:27:25;;;;;;;;;;;22.30;73.50;;;;;;2619066;54;19947;-72
2021/08/17 04:29:51;;;;;;;;;;;22.20;67.10;;;;;;2619104;54;19941;-71
2021/08/17 04:32:17;;;;;;;;;;;22.10;65.60;;;;;;2619404;54;19962;-71
2021/08/17 04:34:45;;;;;;;;;;;22.20;64.60;;;;;;2618600;47;19934;-71
2021/08/17 04:37:11;;;;;;;;;;;22.20;72.40;;;;;;2619272;54;20423;-71
2021/08/17 04:39:37;;;;;;;;;;;21.90;78.60;;;;;;2619093;54;19942;-71
2021/08/17 04:42:03;;;;;;;;;;;21.70;80.60;;;;;;2620308;39;20442;-71
2021/08/17 04:44:29;;;;;;;;;;;21.40;81.30;;;;;;2619229;54;19934;-72
2021/08/17 04:46:55;;;;;;;;;;;21.20;83.70;;;;;;2619226;54;19941;-71
2021/08/17 04:49:21;;;;;;;;;;;21.10;76.90;;;;;;2618976;54;19935;-71
2021/08/17 04:51:49;;;;;;;;;;;21.20;74.90;;;;;;2619344;54;19938;-71
2021/08/17 04:54:15;;;;;;;;;;;21.20;79.90;;;;;;2619220;54;19957;-72
2021/08/17 04:56:40;;;;;;;;;;;21.20;81.50;;;;;;2619250;54;20022;-71
2021/08/17 04:59:06;;;;;;;;;;;21.10;85.00;;;;;;2619059;54;19935;-70
2021/08/17 05:01:32;;;;;;;;;;;20.90;85.60;;;;;;2618514;47;20552;-71
2021/08/17 05:03:58;;;;;;;;;;;20.90;86.40;;;;;;2619285;54;19981;-71
2021/08/17 05:06:24;;;;;;;;;;;20.50;88.00;;;;;;2618986;54;19935;-72
2021/08/17 05:08:52;;;;;;;;;;;20.40;88.60;;;;;;2619282;54;19935;-70
2021/08/17 05:11:18;;;;;;;;;;;20.40;89.50;;;;;;2618360;54;19982;-71
2021/08/17 05:13:44;;;;;;;;;;;20.30;90.70;;;;;;2618997;54;19939;-71
2021/08/17 05:16:11;;;;;;;;;;;20.30;90.30;;;;;;2619214;54;20418;-71
2021/08/17 05:18:36;;;;;;;;;;;20.10;87.20;;;;;;2619114;54;19995;-70
2021/08/17 05:21:03;;;;;;;;;;;20.10;82.70;;;;;;2618647;47;19954;-73
2021/08/17 05:23:29;;;;;;;;;;;20.60;73.20;;;;;;2618983;54;20118;-70
2021/08/17 05:25:57;;;;;;;;;;;20.90;72.10;;;;;;2618609;47;19934;-70
2021/08/17 05:28:23;;;;;;;;;;;21.10;75.10;;;;;;2619050;54;19978;-71
2021/08/17 05:30:49;;;;;;;;;;;21.20;78.60;;;;;;2618823;54;19935;-71
2021/08/17 05:33:15;;;;;;;;;;;21.10;78.50;;;;;;2618475;54;19935;-71
2021/08/17 05:35:42;;;;;;;;;;;21.10;80.10;;;;;;2620442;39;20322;-71
2021/08/17 05:38:08;;;;;;;;;;;21.20;70.20;;;;;;2620275;39;20430;-71
2021/08/17 05:40:34;;;;;;;;;;;21.30;72.50;;;;;;2619023;54;19939;-71
2021/08/17 05:43:04;;;;;;;;;;;21.40;75.60;;;;;;2619148;54;19959;-71
2021/08/17 05:45:30;;;;;;;;;;;21.50;71.20;;;;;;2618515;47;19941;-72
2021/08/17 05:47:55;;;;;;;;;;;21.60;70.50;;;;;;2619107;54;19939;-72
2021/08/17 05:50:21;;;;;;;;;;;21.70;69.60;;;;;;2618695;47;19939;-71
2021/08/17 05:52:47;;;;;;;;;;;21.70;72.00;;;;;;2618991;54;20038;-71
2021/08/17 05:55:13;;;;;;;;;;;21.80;69.00;;;;;;2618968;54;19941;-70
2021/08/17 05:57:39;;;;;;;;;;;21.80;68.60;;;;;;2618452;47;19947;-71
2021/08/17 06:00:11;;;;;;;;;;;21.90;66.10;;;;;;2618907;54;19935;-70
2021/08/17 06:02:37;;;;;;;;;;;22.00;65.10;;;;;;2619291;39;20356;-72
2021/08/17 06:05:03;;;;;;;;;;;22.10;64.30;;;;;;2618966;54;19953;-70
2021/08/17 06:07:29;;;;;;;;;;;22.30;63.70;;;;;;2618357;47;19941;-71
2021/08/17 06:09:55;;;;;;;;;;;22.40;63.70;;;;;;2619035;54;19935;-72
2021/08/17 06:12:21;;;;;;;;;;;22.40;63.80;;;;;;2618588;54;20022;-71
2021/08/17 06:14:47;;;;;;;;;;;22.50;62.70;;;;;;2619109;54;19959;-70
2021/08/17 06:17:15;;;;;;;;;;;22.60;62.90;;;;;;2618905;54;19935;-70
2021/08/17 06:19:41;;;;;;;;;;;22.60;62.30;;;;;;2618939;54;19935;-71
2021/08/17 06:22:06;;;;;;;;;;;22.60;63.40;;;;;;2618837;54;19947;-70
2021/08/17 06:24:32;;;;;;;;;;;22.70;63.40;;;;;;2618867;54;20414;-71
2021/08/17 06:26:58;;;;;;;;;;;22.70;62.50;;;;;;2618626;47;19941;-71
2021/08/17 06:29:24;;;;;;;;;;;22.70;62.80;;;;;;2618818;54;20419;-70
2021/08/17 06:31:50;;;;;;;;;;;22.80;62.40;;;;;;2618866;54;19935;-70
2021/08/17 06:34:18;;;;;;;;;;;22.80;63.00;;;;;;2618854;54;19939;-70
2021/08/17 06:36:44;;;;;;;;;;;22.80;63.20;;;;;;2618833;54;19942;-71
2021/08/17 06:39:09;;;;;;;;;;;22.90;62.50;;;;;;2618795;54;20018;-71
2021/08/17 06:41:35;;;;;;;;;;;22.90;62.60;;;;;;2618410;54;20402;-71
2021/08/17 06:44:02;;;;;;;;;;;23.00;62.60;;;;;;2618404;47;20022;-71
2021/08/17 06:46:28;;;;;;;;;;;23.20;62.70;;;;;;2619055;54;19947;-70
2021/08/17 06:48:53;;;;;;;;;;;23.20;62.20;;;;;;2618728;54;19941;-71
2021/08/17 06:51:22;;;;;;;;;;;23.30;62.60;;;;;;2618482;54;19986;-71
2021/08/17 06:53:47;;;;;;;;;;;23.30;61.40;;;;;;2618393;47;19972;-71
2021/08/17 06:56:13;;;;;;;;;;;23.40;61.30;;;;;;2619248;39;20325;-70
2021/08/17 06:58:39;;;;;;;;;;;23.50;61.30;;;;;;2619141;46;19934;-71
2021/08/17 07:01:05;;;;;;;;;;;23.50;61.60;;;;;;2619410;54;19983;-70
2021/08/17 07:03:31;;;;;;;;;;;23.60;61.10;;;;;;2619510;54;19986;-70
2021/08/17 07:05:57;;;;;;;;;;;23.70;61.30;;;;;;2619406;54;19934;-70
2021/08/17 07:08:25;;;;;;;;;;;23.80;62.10;;;;;;2619421;54;20505;-70
2021/08/17 07:10:51;;;;;;;;;;;23.80;60.40;;;;;;2619391;54;19935;-71
2021/08/17 07:13:17;;;;;;;;;;;23.80;61.20;;;;;;2619513;54;19969;-70
2021/08/17 07:15:42;;;;;;;;;;;23.70;61.30;;;;;;2619542;54;20545;-70
2021/08/17 07:18:09;;;;;;;;;;;23.80;60.70;;;;;;2619327;54;19935;-71
2021/08/17 07:20:35;;;;;;;;;;;24.00;61.80;;;;;;2618974;46;19941;-71
2021/08/17 07:23:00;;;;;;;;;;;24.10;61.90;;;;;;2619443;54;19935;-71
2021/08/17 07:25:29;;;;;;;;;;;24.30;61.20;;;;;;2619837;39;20334;-70
2021/08/17 07:27:55;;;;;;;;;;;24.50;61.90;;;;;;2619373;54;19941;-71
2021/08/17 07:30:20;;;;;;;;;;;24.60;61.70;;;;;;2619223;54;19935;-70
2021/08/17 07:32:46;;;;;;;;;;;24.70;61.30;;;;;;2618682;46;19935;-71
2021/08/17 07:35:14;;;;;;;;;;;24.90;62.10;;;;;;2619391;54;19934;-71
2021/08/17 07:37:41;;;;;;;;;;;25.00;61.00;;;;;;2619865;39;20338;-71
2021/08/17 07:40:07;;;;;;;;;;;25.10;60.80;;;;;;2619289;54;19942;-73
2021/08/17 07:42:36;;;;;;;;;;;25.20;59.30;;;;;;2619443;54;19939;-71
2021/08/17 07:45:02;;;;;;;;;;;25.40;59.80;;;;;;2619240;54;19935;-70
2021/08/17 07:47:28;;;;;;;;;;;25.50;59.60;;;;;;2619293;54;19965;-71
2021/08/17 07:49:54;;;;;;;;;;;25.60;60.50;;;;;;2619357;54;19934;-70
2021/08/17 07:52:20;;;;;;;;;;;25.80;58.40;;;;;;2619616;54;19935;-71
2021/08/17 07:54:45;;;;;;;;;;;25.80;60.50;;;;;;2619497;54;19995;-70
2021/08/17 07:57:11;;;;;;;;;;;25.90;60.30;;;;;;2619634;54;19935;-71
2021/08/17 07:59:37;;;;;;;;;;;;;;;;;;2618931;47;20022;-71
2021/08/17 08:02:06;;;;;;;;;;;26.00;59.50;;;;;;2619353;54;19963;-70
2021/08/17 08:04:32;;;;;;;;;;;;;;;;;;2619265;54;19977;-72
2021/08/17 08:06:58;;;;;;;;;;;26.40;57.60;;;;;;2618828;54;20018;-70
2021/08/17 08:09:23;;;;;;;;;;;26.50;59.40;;;;;;2619293;54;19938;-71
2021/08/17 08:11:49;;;;;;;;;;;26.70;57.80;;;;;;2618832;47;19938;-69
2021/08/17 08:14:15;;;;;;;;;;;26.90;59.20;;;;;;2619262;54;19934;-71
2021/08/17 08:16:41;;;;;;;;;;;26.90;57.00;;;;;;2619260;54;19935;-72
2021/08/17 08:19:10;;;;;;;;;;;27.00;56.50;;;;;;2618697;54;20046;-71
2021/08/17 08:21:36;;;;;;;;;;;27.20;59.20;;;;;;2620542;54;20399;-75
2021/08/17 08:24:02;;;;;;;;;;;27.30;57.40;;;;;;2621925;54;19959;-71
2021/08/17 08:26:28;;;;;;;;;;;27.50;60.00;;;;;;2618476;46;19935;-70
2021/08/17 08:28:54;;;;;;;;;;;27.70;59.40;;;;;;2619101;54;19953;-71
2021/08/17 08:31:21;;;;;;;;;;;27.80;60.90;;;;;;2620188;39;20311;-70
2021/08/17 08:33:47;;;;;;;;;;;27.80;55.90;;;;;;2619244;39;20362;-71
2021/08/17 08:36:15;;;;;;;;;;;27.90;59.80;;;;;;2618834;46;19934;-72
2021/08/17 08:38:41;;;;;;;;;;;28.00;60.70;;;;;;2619198;54;19935;-71
2021/08/17 08:41:07;;;;;;;;;;;28.00;59.50;;;;;;2618992;54;19942;-70
2021/08/17 08:43:33;;;;;;;;;;;28.10;58.80;;;;;;2619189;39;20319;-71
2021/08/17 08:45:59;;;;;;;;;;;28.20;57.40;;;;;;2619177;54;19943;-72
2021/08/17 08:48:25;;;;;;;;;;;;;;;;;;2619323;54;19935;-70
2021/08/17 08:50:50;;;;;;;;;;;28.30;58.80;;;;;;2618923;54;19942;-71
2021/08/17 08:53:20;;;;;;;;;;;28.40;59.80;;;;;;2619021;54;19946;-70
2021/08/17 08:55:46;;;;;;;;;;;;;;;;;;2619183;39;20334;-71
2021/08/17 08:58:12;;;;;;;;;;;28.50;58.10;;;;;;2618877;54;19990;-71
2021/08/17 09:00:38;;;;;;;;;;;;;;;;;;2619375;54;19934;-71
2021/08/17 09:03:03;;;;;;;;;;;28.80;59.00;;;;;;2619042;54;19939;-70
2021/08/17 09:05:29;;;;;;;;;;;28.70;54.40;;;;;;2618755;54;20426;-70
2021/08/17 09:07:56;;;;;;;;;;;28.50;57.90;;;;;;2618849;54;19939;-71
2021/08/17 09:10:25;;;;;;;;;;;28.70;56.20;;;;;;2618923;54;19935;-70
2021/08/17 09:12:51;;;;;;;;;;;;;;;;;;2619060;54;20437;-71
2021/08/17 09:15:18;;;;;;;;;;;28.90;58.50;;;;;;2618551;47;19981;-70
2021/08/17 09:17:44;;;;;;;;;;;;;;;;;;2618263;47;20026;-71
2021/08/17 09:20:10;;;;;;;;;;;;;;;;;;2618904;54;19966;-70
2021/08/17 09:22:36;;;;;;;;;;;;;;;;;;2618912;54;19958;-70
2021/08/17 09:25:02;;;;;;;;;;;;;;;;;;2618959;54;19935;-70
2021/08/17 09:27:31;;;;;;;;;;;29.10;61.50;;;;;;2618917;54;20407;-70
2021/08/17 09:30:03;;;;;;;;;;;29.50;59.20;;;;;;2618482;47;19935;-71
2021/08/17 09:32:29;;;;;;;;;;;29.30;61.20;;;;;;2619083;54;19938;-70
2021/08/17 09:34:56;;;;;;;;;;;29.40;61.10;;;;;;2618893;54;19934;-71
2021/08/17 09:37:25;;;;;;;;;;;29.50;59.40;;;;;;2618842;54;19990;-71
2021/08/17 09:39:54;;;;;;;;;;;29.60;59.10;;;;;;2618849;54;20426;-71
2021/08/17 09:42:21;;;;;;;;;;;29.60;59.30;;;;;;2618834;54;20407;-71
2021/08/17 09:45:04;;;;;;;;;;;29.70;60.70;;;;;;2618875;54;19963;-71
2021/08/17 09:47:30;;;;;;;;;;;29.90;60.70;;;;;;2619469;31;20380;-70
2021/08/17 09:50:14;;;;;;;;;;;29.90;58.00;;;;;;2618623;54;20010;-71
2021/08/17 09:52:40;;;;;;;;;;;29.60;60.60;;;;;;2618579;54;19935;-70
2021/08/17 09:55:11;;;;;;;;;;;29.70;60.70;;;;;;2618662;54;19942;-70
2021/08/17 09:57:37;;;;;;;;;;;29.20;59.50;;;;;;2618107;47;19947;-71
2021/08/17 10:00:07;;;;;;;;;;;29.20;62.60;;;;;;2618602;54;20458;-70
2021/08/17 10:02:33;;;;;;;;;;;29.40;60.30;;;;;;2618642;54;19938;-70
2021/08/17 10:04:59;;;;;;;;;;;29.40;60.90;;;;;;2618355;54;20041;-71
2021/08/17 10:07:25;;;;;;;;;;;29.20;60.60;;;;;;2618679;54;20407;-70
2021/08/17 10:09:51;;;;;;;;;;;29.30;60.00;;;;;;2618485;54;19946;-71
2021/08/17 10:12:17;;;;;;;;;;;29.50;61.00;;;;;;2618614;54;19961;-68
2021/08/17 10:14:43;;;;;;;;;;;29.50;59.70;;;;;;2618628;54;19935;-68
2021/08/17 10:17:12;;;;;;;;;;;29.10;59.90;;;;;;2618557;54;20431;-68
2021/08/17 10:19:38;;;;;;;;;;;29.00;61.10;;;;;;2618502;54;19934;-68
2021/08/17 10:22:06;;;;;;;;;;;28.90;63.00;;;;;;2618045;47;19935;-69
2021/08/17 10:24:33;;;;;;;;;;;28.90;62.60;;;;;;2618580;54;20406;-68
2021/08/17 10:27:13;;;;;;;;;;;29.00;63.10;;;;;;2618581;54;20060;-69
2021/08/17 10:29:50;;;;;;;;;;;29.30;65.90;;;;;;2618672;47;20018;-69
2021/08/17 10:32:34;;;;;;;;;;;29.10;63.70;;;;;;2619316;54;19939;-68
2021/08/17 10:35:00;;;;;;;;;;;28.90;63.90;;;;;;2619506;54;19938;-70
2021/08/17 10:37:26;;;;;;;;;;;28.50;65.10;;;;;;2618899;46;20421;-68
2021/08/17 10:39:51;;;;;;;;;;;28.60;65.60;;;;;;2619501;54;19935;-69
2021/08/17 10:42:19;;;;;;;;;;;28.90;66.00;;;;;;2619460;54;19938;-69
2021/08/17 10:44:45;;;;;;;;;;;28.90;66.10;;;;;;2619469;54;19934;-69
2021/08/17 10:47:28;;;;;;;;;;;29.10;64.20;;;;;;2619840;39;20326;-68
2021/08/17 10:49:56;;;;;;;;;;;29.30;65.50;;;;;;2619178;54;19945;-69
2021/08/17 10:52:40;;;;;;;;;;;29.00;63.90;;;;;;2619242;54;19935;-68
2021/08/17 10:55:21;;;;;;;;;;;28.80;64.30;;;;;;2619120;54;19946;-68
2021/08/17 10:57:49;;;;;;;;;;;29.10;66.20;;;;;;2619431;39;20344;-68
2021/08/17 11:00:42;;;;;;;;;;;29.20;65.50;;;;;;2618619;47;19961;-68
2021/08/17 11:03:08;;;;;;;;;;;29.50;64.00;;;;;;2619534;39;20375;-68
2021/08/17 11:05:53;;;;;;;;;;;28.80;63.90;;;;;;2618346;54;19938;-68
2021/08/17 11:08:34;;;;;;;;;;;28.80;63.20;;;;;;2618882;54;19935;-69
2021/08/17 11:11:00;;;;;;;;;;;29.00;64.20;;;;;;2618778;54;19946;-71
2021/08/17 11:13:26;;;;;;;;;;;28.60;63.30;;;;;;2618825;54;20022;-70
2021/08/17 11:16:04;;;;;;;;;;;28.50;62.60;;;;;;2618897;54;19938;-71
2021/08/17 11:18:30;;;;;;;;;;;28.60;65.30;;;;;;2619313;39;20448;-70
2021/08/17 11:20:59;;;;;;;;;;;29.10;66.70;;;;;;2618300;46;19935;-70
2021/08/17 11:23:24;;;;;;;;;;;29.20;64.00;;;;;;2618856;54;19990;-71
2021/08/17 11:25:51;;;;;;;;;;;29.30;64.30;;;;;;2618883;54;19939;-71
2021/08/17 11:28:19;;;;;;;;;;;29.40;64.50;;;;;;2618799;54;19934;-72
2021/08/17 11:30:46;;;;;;;;;;;29.30;63.70;;;;;;2618774;54;19973;-70
2021/08/17 11:33:15;;;;;;;;;;;29.00;60.90;;;;;;2619335;39;20304;-70
2021/08/17 11:35:41;;;;;;;;;;;28.70;62.90;;;;;;2618431;47;20022;-69
2021/08/17 11:38:09;;;;;;;;;;;28.80;64.90;;;;;;2618935;54;19945;-71
2021/08/17 11:40:35;;;;;;;;;;;29.10;64.20;;;;;;2618515;54;19946;-72
2021/08/17 11:43:01;;;;;;;;;;;29.30;66.60;;;;;;2618158;54;19962;-70
2021/08/17 11:45:30;;;;;;;;;;;29.30;64.70;;;;;;2619011;54;19938;-70
2021/08/17 11:47:57;;;;;;;;;;;;;;;;;;2618935;54;19946;-70
2021/08/17 11:50:23;;;;;;;;;;;29.40;66.30;;;;;;2618288;51;19959;-71
2021/08/17 11:52:50;;;;;;;;;;;30.00;64.20;;;;;;2618857;54;19934;-71
2021/08/17 11:55:19;;;;;;;;;;;30.00;64.00;;;;;;2618908;54;19939;-70
2021/08/17 11:57:46;;;;;;;;;;;30.10;62.60;;;;;;2618836;54;19986;-71
2021/08/17 12:00:13;;;;;;;;;;;30.20;61.60;;;;;;2618772;54;19938;-71
2021/08/17 12:02:40;;;;;;;;;;;30.50;62.90;;;;;;2618727;54;19943;-71
2021/08/17 12:05:07;;;;;;;;;;;30.10;61.80;;;;;;2618694;54;19946;-70
2021/08/17 12:07:33;;;;;;;;;;;29.90;59.90;;;;;;2618761;54;19958;-71
2021/08/17 12:10:04;;;;;;;;;;;30.10;61.10;;;;;;2618632;54;19946;-70
2021/08/17 12:12:45;;;;;;;;;;;30.30;62.30;;;;;;2617503;54;19979;-69
2021/08/17 12:15:14;;;;;;;;;;;29.90;61.60;;;;;;2618650;54;19938;-70
2021/08/17 12:17:52;;;;;;;;;;;29.70;58.80;;;;;;2619167;39;20330;-71
2021/08/17 12:20:18;;;;;;;;;;;29.30;58.40;;;;;;2618657;54;19939;-70
2021/08/17 12:22:44;;;;;;;;;;;29.30;59.30;;;;;;2619112;39;20364;-71
2021/08/17 12:25:18;;;;;;;;;;;29.80;59.10;;;;;;2618682;54;19938;-71
2021/08/17 12:27:51;;;;;;;;;;;30.00;59.40;;;;;;2618713;54;20021;-71
2021/08/17 12:30:27;;;;;;;;;;;30.00;57.70;;;;;;2618621;54;19938;-69
2021/08/17 12:32:53;;;;;;;;;;;30.20;59.10;;;;;;2618745;54;19945;-71
2021/08/17 12:35:24;;;;;;;;;;;30.10;57.70;;;;;;2618942;54;20026;-71
2021/08/17 12:37:50;;;;;;;;;;;;;;;;;;2618287;54;19946;-70
2021/08/17 12:40:15;;;;;;;;;;;30.10;59.10;;;;;;2618939;54;19939;-71
2021/08/17 12:42:42;;;;;;;;;;;30.50;58.20;;;;;;2618930;54;19961;-70
2021/08/17 12:45:12;;;;;;;;;;;30.60;59.30;;;;;;2618853;54;19938;-71
2021/08/17 12:47:54;;;;;;;;;;;30.80;59.10;;;;;;2618945;54;19946;-71
2021/08/17 12:50:20;;;;;;;;;;;;;;;;;;2618656;54;19942;-70
2021/08/17 12:52:49;;;;;;;;;;;;;;;;;;2618659;54;19934;-71
2021/08/17 12:55:19;;;;;;;;;;;;;;;;;;2618830;54;19942;-71
2021/08/17 12:57:45;;;;;;;;;;;31.10;57.90;;;;;;2619420;39;20318;-71
2021/08/17 13:00:13;;;;;;;;;;;31.20;57.00;;;;;;2618943;54;19942;-69
2021/08/17 13:02:40;;;;;;;;;;;;;;;;;;2618196;46;19939;-68
2021/08/17 13:05:10;;;;;;;;;;;30.50;58.00;;;;;;2618651;54;20026;-69
2021/08/17 13:07:36;;;;;;;;;;;30.50;59.00;;;;;;2618860;54;19962;-69
2021/08/17 13:10:02;;;;;;;;;;;30.90;56.30;;;;;;2618771;54;19934;-69
2021/08/17 13:12:29;;;;;;;;;;;30.90;59.90;;;;;;2618923;54;19934;-69
2021/08/17 13:14:55;;;;;;;;;;;31.20;57.10;;;;;;2618796;54;20046;-69
2021/08/17 13:17:21;;;;;;;;;;;31.30;58.10;;;;;;2618721;54;19935;-68
2021/08/17 13:19:47;;;;;;;;;;;31.40;56.50;;;;;;2618770;54;19941;-69
2021/08/17 13:22:17;;;;;;;;;;;31.20;58.40;;;;;;2618701;54;19959;-70
2021/08/17 13:24:43;;;;;;;;;;;31.10;59.50;;;;;;2618810;54;20399;-69
2021/08/17 13:27:08;;;;;;;;;;;31.20;57.00;;;;;;2618684;54;19942;-69
2021/08/17 13:29:34;;;;;;;;;;;;;;;;;;2619217;39;20345;-68
2021/08/17 13:32:00;;;;;;;;;;;;;;;;;;2618582;54;19935;-68
2021/08/17 13:34:26;;;;;;;;;;;;;;;;;;2618618;54;19935;-67
2021/08/17 13:36:52;;;;;;;;;;;31.30;60.40;;;;;;2618657;54;20022;-69
2021/08/17 13:39:21;;;;;;;;;;;31.40;57.20;;;;;;2617993;47;19935;-67
2021/08/17 13:41:47;;;;;;;;;;;31.20;55.50;;;;;;2618667;54;19934;-69
2021/08/17 13:44:13;;;;;;;;;;;;;;;;;;2618676;54;19985;-69
2021/08/17 13:46:39;;;;;;;;;;;;;;;;;;2618690;54;19938;-68
2021/08/17 13:49:05;;;;;;;;;;;;;;;;;;2617985;47;19960;-67
2021/08/17 13:51:31;;;;;;;;;;;;;;;;;;2618063;47;19938;-68
2021/08/17 13:53:57;;;;;;;;;;;32.00;55.70;;;;;;2618705;54;19935;-67
2021/08/17 13:56:25;;;;;;;;;;;30.70;57.80;;;;;;2618591;54;19942;-68
2021/08/17 13:58:51;;;;;;;;;;;31.20;55.00;;;;;;2618664;54;19935;-68
2021/08/17 14:01:17;;;;;;;;;;;31.20;56.00;;;;;;2618945;39;20323;-68
2021/08/17 14:03:44;;;;;;;;;;;31.30;56.70;;;;;;2619235;54;19971;-69
2021/08/17 14:06:10;;;;;;;;;;;31.50;57.60;;;;;;2619576;54;19938;-68
2021/08/17 14:08:35;;;;;;;;;;;31.80;54.10;;;;;;2619316;54;19958;-68
2021/08/17 14:11:01;;;;;;;;;;;;;;;;;;2619462;54;19935;-69
2021/08/17 14:13:30;;;;;;;;;;;32.30;54.20;;;;;;2619353;54;20025;-69
2021/08/17 14:16:01;;;;;;;;;;;;;;;;;;2618831;46;19941;-68
2021/08/17 14:18:26;;;;;;;;;;;31.80;55.60;;;;;;2618876;47;19958;-69
2021/08/17 14:20:56;;;;;;;;;;;;;;;;;;2620319;39;20340;-68
2021/08/17 14:23:22;;;;;;;;;;;;;;;;;;2619321;54;19934;-67
2021/08/17 14:25:48;;;;;;;;;;;31.80;56.00;;;;;;2619311;54;19961;-67
2021/08/17 14:28:14;;;;;;;;;;;;;;;;;;2619343;54;19934;-67
2021/08/17 14:30:40;;;;;;;;;;;;;;;;;;2619347;54;19965;-68